sensor_id;sensor_type;location;lat;lon;timestamp;P1;durP1;ratioP1;P2;durP2;ratioP2
43962;SDS011;29622;45.534;9.242;2022-12-18T00:03:54;25.15;;;12.30;;
43962;SDS011;29622;45.534;9.242;2022-12-18T00:08:56;22.27;;;11.20;;
43962;SDS011;29622;45.534;9.242;2022-12-18T00:13:58;22.05;;;12.13;;
43962;SDS011;29622;45.534;9.242;2022-12-18T00:18:59;20.80;;;12.10;;
43962;SDS011;29622;45.534;9.242;2022-12-18T00:24:00;23.45;;;11.75;;
43962;SDS011;29622;45.534;9.242;2022-12-18T00:29:02;25.38;;;12.48;;
43962;SDS011;29622;45.534;9.242;2022-12-18T00:34:09;22.27;;;11.68;;
43962;SDS011;29622;45.534;9.242;2022-12-18T00:39:13;24.27;;;12.00;;
43962;SDS011;29622;45.534;9.242;2022-12-18T00:44:18;25.27;;;12.00;;
43962;SDS011;29622;45.534;9.242;2022-12-18T00:49:19;19.45;;;10.95;;
43962;SDS011;29622;45.534;9.242;2022-12-18T00:54:20;22.13;;;10.82;;
43962;SDS011;29622;45.534;9.242;2022-12-18T00:59:20;20.90;;;11.50;;
43962;SDS011;29622;45.534;9.242;2022-12-18T01:04:21;21.15;;;11.18;;
43962;SDS011;29622;45.534;9.242;2022-12-18T01:09:22;20.45;;;11.82;;
43962;SDS011;29622;45.534;9.242;2022-12-18T01:14:22;20.05;;;10.98;;
43962;SDS011;29622;45.534;9.242;2022-12-18T01:19:23;24.10;;;11.40;;
43962;SDS011;29622;45.534;9.242;2022-12-18T01:24:24;18.20;;;11.50;;
43962;SDS011;29622;45.534;9.242;2022-12-18T01:29:24;20.95;;;10.65;;
43962;SDS011;29622;45.534;9.242;2022-12-18T01:34:25;19.23;;;11.77;;
43962;SDS011;29622;45.534;9.242;2022-12-18T01:39:26;20.80;;;11.63;;
43962;SDS011;29622;45.534;9.242;2022-12-18T01:49:59;20.08;;;10.05;;
43962;SDS011;29622;45.534;9.242;2022-12-18T01:55:05;20.77;;;12.00;;
43962;SDS011;29622;45.534;9.242;2022-12-18T02:00:12;23.63;;;12.05;;
43962;SDS011;29622;45.534;9.242;2022-12-18T02:05:16;21.10;;;11.95;;
43962;SDS011;29622;45.534;9.242;2022-12-18T02:10:27;22.67;;;12.53;;
43962;SDS011;29622;45.534;9.242;2022-12-18T02:26:27;24.45;;;12.52;;
43962;SDS011;29622;45.534;9.242;2022-12-18T02:31:45;20.73;;;11.35;;
43962;SDS011;29622;45.534;9.242;2022-12-18T02:36:52;23.13;;;12.48;;
43962;SDS011;29622;45.534;9.242;2022-12-18T02:41:55;22.23;;;12.70;;
43962;SDS011;29622;45.534;9.242;2022-12-18T02:46:58;25.98;;;14.10;;
43962;SDS011;29622;45.534;9.242;2022-12-18T02:52:15;30.98;;;14.75;;
43962;SDS011;29622;45.534;9.242;2022-12-18T02:57:21;30.00;;;15.10;;
43962;SDS011;29622;45.534;9.242;2022-12-18T03:02:33;30.73;;;14.57;;
43962;SDS011;29622;45.534;9.242;2022-12-18T03:07:50;30.67;;;15.23;;
43962;SDS011;29622;45.534;9.242;2022-12-18T03:13:10;38.63;;;17.27;;
43962;SDS011;29622;45.534;9.242;2022-12-18T03:18:17;38.35;;;17.10;;
43962;SDS011;29622;45.534;9.242;2022-12-18T03:23:30;33.92;;;16.48;;
43962;SDS011;29622;45.534;9.242;2022-12-18T03:28:36;37.92;;;17.50;;
43962;SDS011;29622;45.534;9.242;2022-12-18T03:33:42;46.03;;;19.55;;
43962;SDS011;29622;45.534;9.242;2022-12-18T03:38:48;40.85;;;18.83;;
43962;SDS011;29622;45.534;9.242;2022-12-18T03:49:10;37.17;;;15.83;;
43962;SDS011;29622;45.534;9.242;2022-12-18T03:54:15;70.88;;;26.15;;
43962;SDS011;29622;45.534;9.242;2022-12-18T03:59:25;56.03;;;18.80;;
43962;SDS011;29622;45.534;9.242;2022-12-18T04:04:30;77.18;;;27.60;;
43962;SDS011;29622;45.534;9.242;2022-12-18T04:09:34;74.45;;;25.33;;
43962;SDS011;29622;45.534;9.242;2022-12-18T04:14:38;73.82;;;26.77;;
43962;SDS011;29622;45.534;9.242;2022-12-18T04:19:42;77.25;;;26.35;;
43962;SDS011;29622;45.534;9.242;2022-12-18T04:24:44;80.25;;;26.50;;
43962;SDS011;29622;45.534;9.242;2022-12-18T04:29:55;86.68;;;25.75;;
43962;SDS011;29622;45.534;9.242;2022-12-18T04:34:56;74.13;;;26.58;;
43962;SDS011;29622;45.534;9.242;2022-12-18T04:39:57;68.85;;;24.95;;
43962;SDS011;29622;45.534;9.242;2022-12-18T04:45:06;73.75;;;26.15;;
43962;SDS011;29622;45.534;9.242;2022-12-18T04:50:07;69.97;;;24.00;;
43962;SDS011;29622;45.534;9.242;2022-12-18T04:55:08;61.28;;;20.77;;
43962;SDS011;29622;45.534;9.242;2022-12-18T05:00:09;62.20;;;22.33;;
43962;SDS011;29622;45.534;9.242;2022-12-18T05:05:11;58.80;;;22.23;;
43962;SDS011;29622;45.534;9.242;2022-12-18T05:10:12;62.97;;;23.08;;
43962;SDS011;29622;45.534;9.242;2022-12-18T05:15:13;62.00;;;20.92;;
43962;SDS011;29622;45.534;9.242;2022-12-18T05:20:13;70.43;;;24.08;;
43962;SDS011;29622;45.534;9.242;2022-12-18T05:25:14;72.03;;;24.10;;
43962;SDS011;29622;45.534;9.242;2022-12-18T05:30:15;58.75;;;21.08;;
43962;SDS011;29622;45.534;9.242;2022-12-18T05:35:16;65.30;;;21.40;;
43962;SDS011;29622;45.534;9.242;2022-12-18T05:40:17;60.30;;;22.73;;
43962;SDS011;29622;45.534;9.242;2022-12-18T05:45:17;55.00;;;21.83;;
43962;SDS011;29622;45.534;9.242;2022-12-18T05:50:18;62.88;;;21.38;;
43962;SDS011;29622;45.534;9.242;2022-12-18T05:55:19;70.22;;;22.52;;
43962;SDS011;29622;45.534;9.242;2022-12-18T06:00:19;60.60;;;21.98;;
43962;SDS011;29622;45.534;9.242;2022-12-18T06:05:20;67.60;;;25.15;;
43962;SDS011;29622;45.534;9.242;2022-12-18T06:10:21;71.78;;;23.83;;
43962;SDS011;29622;45.534;9.242;2022-12-18T06:15:21;76.15;;;25.25;;
43962;SDS011;29622;45.534;9.242;2022-12-18T06:20:22;74.28;;;25.98;;
43962;SDS011;29622;45.534;9.242;2022-12-18T06:25:23;78.28;;;23.50;;
43962;SDS011;29622;45.534;9.242;2022-12-18T06:30:24;67.97;;;26.08;;
43962;SDS011;29622;45.534;9.242;2022-12-18T06:35:24;74.63;;;24.67;;
43962;SDS011;29622;45.534;9.242;2022-12-18T06:40:25;58.28;;;21.65;;
43962;SDS011;29622;45.534;9.242;2022-12-18T06:45:25;65.85;;;22.92;;
43962;SDS011;29622;45.534;9.242;2022-12-18T06:50:26;62.83;;;21.80;;
43962;SDS011;29622;45.534;9.242;2022-12-18T06:55:27;60.30;;;20.70;;
43962;SDS011;29622;45.534;9.242;2022-12-18T07:00:28;61.70;;;21.85;;
43962;SDS011;29622;45.534;9.242;2022-12-18T07:05:28;47.88;;;19.58;;
43962;SDS011;29622;45.534;9.242;2022-12-18T07:10:29;50.72;;;19.55;;
43962;SDS011;29622;45.534;9.242;2022-12-18T07:15:29;55.03;;;18.67;;
43962;SDS011;29622;45.534;9.242;2022-12-18T07:20:30;55.35;;;20.00;;
43962;SDS011;29622;45.534;9.242;2022-12-18T07:25:37;60.65;;;20.38;;
43962;SDS011;29622;45.534;9.242;2022-12-18T07:30:37;63.67;;;22.38;;
43962;SDS011;29622;45.534;9.242;2022-12-18T07:35:38;52.83;;;21.80;;
43962;SDS011;29622;45.534;9.242;2022-12-18T07:40:39;55.17;;;20.30;;
43962;SDS011;29622;45.534;9.242;2022-12-18T07:45:39;51.33;;;20.63;;
43962;SDS011;29622;45.534;9.242;2022-12-18T07:50:40;53.30;;;20.67;;
43962;SDS011;29622;45.534;9.242;2022-12-18T07:55:41;52.15;;;21.23;;
43962;SDS011;29622;45.534;9.242;2022-12-18T08:00:42;53.15;;;20.25;;
43962;SDS011;29622;45.534;9.242;2022-12-18T08:05:43;56.22;;;20.73;;
43962;SDS011;29622;45.534;9.242;2022-12-18T08:10:44;64.10;;;24.27;;
43962;SDS011;29622;45.534;9.242;2022-12-18T08:15:46;64.60;;;23.33;;
43962;SDS011;29622;45.534;9.242;2022-12-18T08:20:46;57.15;;;23.02;;
43962;SDS011;29622;45.534;9.242;2022-12-18T08:25:47;55.97;;;22.15;;
43962;SDS011;29622;45.534;9.242;2022-12-18T08:30:51;62.45;;;22.42;;
43962;SDS011;29622;45.534;9.242;2022-12-18T08:35:52;58.65;;;22.50;;
43962;SDS011;29622;45.534;9.242;2022-12-18T08:40:59;59.97;;;21.08;;
43962;SDS011;29622;45.534;9.242;2022-12-18T08:46:00;57.30;;;23.67;;
43962;SDS011;29622;45.534;9.242;2022-12-18T08:51:01;59.92;;;24.02;;
43962;SDS011;29622;45.534;9.242;2022-12-18T08:56:02;54.67;;;21.50;;
43962;SDS011;29622;45.534;9.242;2022-12-18T09:01:04;72.38;;;24.15;;
43962;SDS011;29622;45.534;9.242;2022-12-18T09:06:06;58.90;;;22.27;;
43962;SDS011;29622;45.534;9.242;2022-12-18T09:11:11;57.50;;;22.88;;
43962;SDS011;29622;45.534;9.242;2022-12-18T09:16:14;56.75;;;23.00;;
43962;SDS011;29622;45.534;9.242;2022-12-18T09:21:15;62.95;;;22.80;;
43962;SDS011;29622;45.534;9.242;2022-12-18T09:26:18;46.28;;;19.30;;
43962;SDS011;29622;45.534;9.242;2022-12-18T09:31:19;53.97;;;21.90;;
43962;SDS011;29622;45.534;9.242;2022-12-18T09:36:21;48.55;;;20.42;;
43962;SDS011;29622;45.534;9.242;2022-12-18T09:46:46;50.83;;;20.75;;
43962;SDS011;29622;45.534;9.242;2022-12-18T09:51:55;46.03;;;19.40;;
43962;SDS011;29622;45.534;9.242;2022-12-18T09:57:01;45.75;;;21.77;;
43962;SDS011;29622;45.534;9.242;2022-12-18T10:02:17;43.85;;;19.73;;
43962;SDS011;29622;45.534;9.242;2022-12-18T10:13:30;39.67;;;18.88;;
43962;SDS011;29622;45.534;9.242;2022-12-18T10:23:51;36.45;;;16.75;;
43962;SDS011;29622;45.534;9.242;2022-12-18T10:29:17;32.65;;;13.25;;
43962;SDS011;29622;45.534;9.242;2022-12-18T10:34:18;29.60;;;15.40;;
43962;SDS011;29622;45.534;9.242;2022-12-18T10:39:20;28.85;;;12.13;;
43962;SDS011;29622;45.534;9.242;2022-12-18T10:44:23;35.03;;;14.45;;
43962;SDS011;29622;45.534;9.242;2022-12-18T10:49:26;35.08;;;14.23;;
43962;SDS011;29622;45.534;9.242;2022-12-18T10:54:29;34.30;;;16.88;;
43962;SDS011;29622;45.534;9.242;2022-12-18T10:59:31;35.13;;;16.27;;
43962;SDS011;29622;45.534;9.242;2022-12-18T11:04:51;30.95;;;12.52;;
43962;SDS011;29622;45.534;9.242;2022-12-18T11:09:59;35.03;;;18.30;;
43962;SDS011;29622;45.534;9.242;2022-12-18T11:15:01;39.38;;;18.17;;
43962;SDS011;29622;45.534;9.242;2022-12-18T11:25:30;41.10;;;19.08;;
43962;SDS011;29622;45.534;9.242;2022-12-18T11:30:33;45.75;;;20.38;;
43962;SDS011;29622;45.534;9.242;2022-12-18T11:40:42;28.73;;;11.73;;
43962;SDS011;29622;45.534;9.242;2022-12-18T11:45:54;41.15;;;19.33;;
43962;SDS011;29622;45.534;9.242;2022-12-18T12:28:28;33.45;;;17.48;;
43962;SDS011;29622;45.534;9.242;2022-12-18T12:33:48;37.78;;;19.35;;
43962;SDS011;29622;45.534;9.242;2022-12-18T12:39:06;31.80;;;17.73;;
43962;SDS011;29622;45.534;9.242;2022-12-18T12:44:15;34.20;;;17.40;;
43962;SDS011;29622;45.534;9.242;2022-12-18T12:49:40;32.50;;;18.80;;
43962;SDS011;29622;45.534;9.242;2022-12-18T12:54:47;32.80;;;17.60;;
43962;SDS011;29622;45.534;9.242;2022-12-18T13:05:24;30.88;;;15.07;;
43962;SDS011;29622;45.534;9.242;2022-12-18T13:10:39;33.88;;;16.95;;
43962;SDS011;29622;45.534;9.242;2022-12-18T13:15:42;32.08;;;18.30;;
43962;SDS011;29622;45.534;9.242;2022-12-18T13:25:52;34.88;;;18.60;;
43962;SDS011;29622;45.534;9.242;2022-12-18T13:30:55;39.22;;;19.75;;
43962;SDS011;29622;45.534;9.242;2022-12-18T13:51:20;46.30;;;20.20;;
43962;SDS011;29622;45.534;9.242;2022-12-18T13:56:23;43.58;;;20.33;;
43962;SDS011;29622;45.534;9.242;2022-12-18T14:01:26;41.75;;;19.65;;
43962;SDS011;29622;45.534;9.242;2022-12-18T14:06:27;46.42;;;22.10;;
43962;SDS011;29622;45.534;9.242;2022-12-18T14:11:27;40.17;;;17.83;;
43962;SDS011;29622;45.534;9.242;2022-12-18T14:16:29;46.95;;;24.13;;
43962;SDS011;29622;45.534;9.242;2022-12-18T14:21:31;44.78;;;21.98;;
43962;SDS011;29622;45.534;9.242;2022-12-18T14:26:35;45.00;;;21.55;;
43962;SDS011;29622;45.534;9.242;2022-12-18T14:31:35;49.33;;;24.10;;
43962;SDS011;29622;45.534;9.242;2022-12-18T14:36:36;46.13;;;21.70;;
43962;SDS011;29622;45.534;9.242;2022-12-18T14:41:39;41.78;;;21.80;;
43962;SDS011;29622;45.534;9.242;2022-12-18T14:46:42;42.60;;;20.63;;
43962;SDS011;29622;45.534;9.242;2022-12-18T14:51:48;40.45;;;19.83;;
43962;SDS011;29622;45.534;9.242;2022-12-18T14:57:00;47.30;;;21.60;;
43962;SDS011;29622;45.534;9.242;2022-12-18T15:02:19;37.33;;;18.05;;
43962;SDS011;29622;45.534;9.242;2022-12-18T15:07:23;41.17;;;18.98;;
43962;SDS011;29622;45.534;9.242;2022-12-18T15:12:33;28.13;;;15.25;;
43962;SDS011;29622;45.534;9.242;2022-12-18T15:17:43;38.03;;;18.23;;
43962;SDS011;29622;45.534;9.242;2022-12-18T15:22:44;33.88;;;16.42;;
43962;SDS011;29622;45.534;9.242;2022-12-18T15:27:47;37.58;;;18.88;;
43962;SDS011;29622;45.534;9.242;2022-12-18T15:32:48;35.85;;;18.05;;
43962;SDS011;29622;45.534;9.242;2022-12-18T15:37:51;34.75;;;18.40;;
43962;SDS011;29622;45.534;9.242;2022-12-18T15:42:53;39.90;;;19.85;;
43962;SDS011;29622;45.534;9.242;2022-12-18T15:48:17;24.83;;;12.93;;
43962;SDS011;29622;45.534;9.242;2022-12-18T15:53:20;38.60;;;19.25;;
43962;SDS011;29622;45.534;9.242;2022-12-18T15:58:21;46.72;;;21.02;;
43962;SDS011;29622;45.534;9.242;2022-12-18T16:03:22;39.08;;;19.75;;
43962;SDS011;29622;45.534;9.242;2022-12-18T16:08:22;37.65;;;19.63;;
43962;SDS011;29622;45.534;9.242;2022-12-18T16:13:23;42.25;;;20.48;;
43962;SDS011;29622;45.534;9.242;2022-12-18T16:18:23;38.55;;;20.65;;
43962;SDS011;29622;45.534;9.242;2022-12-18T16:23:24;42.25;;;21.27;;
43962;SDS011;29622;45.534;9.242;2022-12-18T16:28:25;46.22;;;20.95;;
43962;SDS011;29622;45.534;9.242;2022-12-18T16:33:25;30.15;;;15.43;;
43962;SDS011;29622;45.534;9.242;2022-12-18T16:38:26;29.73;;;15.05;;
43962;SDS011;29622;45.534;9.242;2022-12-18T16:43:28;51.25;;;22.88;;
43962;SDS011;29622;45.534;9.242;2022-12-18T16:48:28;43.63;;;21.73;;
43962;SDS011;29622;45.534;9.242;2022-12-18T16:53:32;45.08;;;22.13;;
43962;SDS011;29622;45.534;9.242;2022-12-18T16:58:33;45.75;;;21.83;;
43962;SDS011;29622;45.534;9.242;2022-12-18T17:03:35;49.17;;;23.88;;
43962;SDS011;29622;45.534;9.242;2022-12-18T17:08:36;50.28;;;24.50;;
43962;SDS011;29622;45.534;9.242;2022-12-18T17:13:37;49.00;;;23.63;;
43962;SDS011;29622;45.534;9.242;2022-12-18T17:18:38;60.78;;;25.92;;
43962;SDS011;29622;45.534;9.242;2022-12-18T17:23:39;57.92;;;25.48;;
43962;SDS011;29622;45.534;9.242;2022-12-18T17:28:41;56.00;;;25.02;;
43962;SDS011;29622;45.534;9.242;2022-12-18T17:33:42;49.83;;;25.27;;
43962;SDS011;29622;45.534;9.242;2022-12-18T17:39:18;62.47;;;27.83;;
43962;SDS011;29622;45.534;9.242;2022-12-18T17:44:15;57.38;;;25.92;;
43962;SDS011;29622;45.534;9.242;2022-12-18T17:49:16;63.40;;;27.98;;
43962;SDS011;29622;45.534;9.242;2022-12-18T17:54:17;57.03;;;25.55;;
43962;SDS011;29622;45.534;9.242;2022-12-18T17:59:18;64.05;;;27.20;;
43962;SDS011;29622;45.534;9.242;2022-12-18T18:04:19;85.43;;;32.25;;
43962;SDS011;29622;45.534;9.242;2022-12-18T18:09:19;77.68;;;32.63;;
43962;SDS011;29622;45.534;9.242;2022-12-18T18:14:20;79.43;;;26.00;;
43962;SDS011;29622;45.534;9.242;2022-12-18T18:19:21;89.43;;;33.63;;
43962;SDS011;29622;45.534;9.242;2022-12-18T18:24:23;92.88;;;34.70;;
43962;SDS011;29622;45.534;9.242;2022-12-18T18:29:25;97.03;;;35.25;;
43962;SDS011;29622;45.534;9.242;2022-12-18T18:34:27;93.47;;;35.45;;
43962;SDS011;29622;45.534;9.242;2022-12-18T18:39:29;90.10;;;33.95;;
43962;SDS011;29622;45.534;9.242;2022-12-18T18:44:30;95.95;;;36.40;;
43962;SDS011;29622;45.534;9.242;2022-12-18T18:49:31;93.25;;;36.35;;
43962;SDS011;29622;45.534;9.242;2022-12-18T18:54:31;95.72;;;36.30;;
43962;SDS011;29622;45.534;9.242;2022-12-18T18:59:32;99.97;;;36.75;;
43962;SDS011;29622;45.534;9.242;2022-12-18T19:04:33;97.10;;;35.28;;
43962;SDS011;29622;45.534;9.242;2022-12-18T19:09:33;93.25;;;35.55;;
43962;SDS011;29622;45.534;9.242;2022-12-18T19:14:35;98.22;;;35.33;;
43962;SDS011;29622;45.534;9.242;2022-12-18T19:19:35;102.28;;;36.53;;
43962;SDS011;29622;45.534;9.242;2022-12-18T19:24:37;105.97;;;38.53;;
43962;SDS011;29622;45.534;9.242;2022-12-18T19:29:38;94.95;;;35.88;;
43962;SDS011;29622;45.534;9.242;2022-12-18T19:34:39;102.82;;;38.72;;
43962;SDS011;29622;45.534;9.242;2022-12-18T19:39:40;120.75;;;36.63;;
43962;SDS011;29622;45.534;9.242;2022-12-18T19:44:41;100.40;;;36.03;;
43962;SDS011;29622;45.534;9.242;2022-12-18T19:49:42;106.65;;;37.47;;
43962;SDS011;29622;45.534;9.242;2022-12-18T19:54:42;96.55;;;35.38;;
43962;SDS011;29622;45.534;9.242;2022-12-18T19:59:43;99.13;;;35.25;;
43962;SDS011;29622;45.534;9.242;2022-12-18T20:04:43;83.20;;;32.88;;
43962;SDS011;29622;45.534;9.242;2022-12-18T20:09:44;86.68;;;32.78;;
43962;SDS011;29622;45.534;9.242;2022-12-18T20:14:45;80.45;;;31.70;;
43962;SDS011;29622;45.534;9.242;2022-12-18T20:19:45;77.75;;;29.63;;
43962;SDS011;29622;45.534;9.242;2022-12-18T20:24:46;82.28;;;32.72;;
43962;SDS011;29622;45.534;9.242;2022-12-18T20:29:46;90.55;;;31.08;;
43962;SDS011;29622;45.534;9.242;2022-12-18T20:34:47;85.18;;;33.28;;
43962;SDS011;29622;45.534;9.242;2022-12-18T21:24:42;81.27;;;29.00;;
